Time;durP1;ratioP1;P1;durP2;ratioP2;P2;SDS_P1;SDS_P2;PMS_P1;PMS_P2;Temp;Humidity;BMP_temperature;BMP_pressure;BME280_temperature;BME280_humidity;BME280_pressure;Samples;Min_cycle;Max_cycle;Signal;HPM_P1;HPM_P2
2022/08/07 00:00:08;;;;;;;;;;;;;;;13.96;82.71;101391.08;84798;1327;22942;-70
2022/08/07 00:02:35;;;;;;;;;;;;;;;13.88;82.84;101387.48;84828;1326;25262;-70
2022/08/07 00:04:43;;;;;;;;;;;;;;;13.85;82.92;101392.53;84844;1327;23923;-71
2022/08/07 00:06:50;;;;;;;;;;;;;;;13.80;82.95;101393.39;84810;1326;25472;-69
2022/08/07 00:08:57;;;;;;;;;;;;;;;13.77;82.98;101396.33;84837;1326;22553;-72
2022/08/07 00:11:04;;;;;;;;;;;;;;;13.73;82.95;101395.74;84806;1327;22577;-69
2022/08/07 00:13:11;;;;;;;;;;;;;;;13.70;82.65;101397.61;84813;1330;25471;-71
2022/08/07 00:15:19;;;;;;;;;;;;;;;13.69;82.48;101398.35;84854;1322;22567;-71
2022/08/07 00:17:26;;;;;;;;;;;;;;;13.66;82.80;101403.72;84841;1326;23894;-71
2022/08/07 00:19:33;;;;;;;;;;;;;;;13.62;82.86;101405.41;84846;1327;22595;-69
2022/08/07 00:21:40;;;;;;;;;;;;;;;13.58;82.84;101403.12;84776;1327;22683;-70
2022/08/07 00:23:47;;;;;;;;;;;;;;;13.53;82.78;101409.41;84774;1327;22582;-71
2022/08/07 00:25:55;;;;;;;;;;;;;;;13.48;82.82;101408.02;84811;1326;24044;-68
2022/08/07 00:28:01;;;;;;;;;;;;;;;13.43;82.71;101412.36;84768;1327;24289;-70
2022/08/07 00:30:10;;;;;;;;;;;;;;;13.40;82.71;101409.85;84785;1327;25275;-71
2022/08/07 00:32:17;;;;;;;;;;;;;;;13.36;82.89;101409.81;84786;1326;22577;-68
2022/08/07 00:34:25;;;;;;;;;;;;;;;13.29;82.70;101411.95;84778;1325;22654;-71
2022/08/07 00:36:32;;;;;;;;;;;;;;;13.24;83.11;101410.57;84771;1326;22553;-68
2022/08/07 00:38:39;;;;;;;;;;;;;;;13.19;83.08;101412.25;84778;1327;26502;-69
2022/08/07 00:40:46;;;;;;;;;;;;;;;13.16;83.10;101414.09;84813;1329;22759;-69
2022/08/07 00:42:53;;;;;;;;;;;;;;;13.13;83.11;101415.60;84814;1327;25240;-70
2022/08/07 00:45:01;;;;;;;;;;;;;;;13.08;83.18;101417.13;84800;1326;23000;-69
2022/08/07 00:47:08;;;;;;;;;;;;;;;13.05;83.12;101416.39;84806;1321;22551;-71
2022/08/07 00:49:15;;;;;;;;;;;;;;;13.01;83.19;101417.39;84873;1325;22571;-68
2022/08/07 00:51:23;;;;;;;;;;;;;;;12.97;83.18;101413.48;84826;1327;22598;-69
2022/08/07 00:53:32;;;;;;;;;;;;;;;12.91;83.34;101416.45;84830;1326;22573;-69
2022/08/07 00:55:39;;;;;;;;;;;;;;;12.87;83.30;101417.27;84812;1327;22561;-70
2022/08/07 00:57:46;;;;;;;;;;;;;;;12.84;83.31;101421.23;84780;1326;24787;-69
2022/08/07 00:59:53;;;;;;;;;;;;;;;12.79;83.39;101418.77;84802;1327;22571;-68
2022/08/07 01:02:02;;;;;;;;;;;;;;;12.74;83.55;101418.89;84798;1322;25619;-70
2022/08/07 01:04:09;;;;;;;;;;;;;;;12.69;83.55;101421.00;84826;1325;22595;-69
2022/08/07 01:06:16;;;;;;;;;;;;;;;12.64;83.66;101422.88;84769;1326;22620;-69
2022/08/07 01:08:23;;;;;;;;;;;;;;;12.60;83.85;101419.67;84800;1326;22561;-70
2022/08/07 01:10:30;;;;;;;;;;;;;;;12.56;84.13;101419.28;84818;1327;23942;-71
2022/08/07 01:12:38;;;;;;;;;;;;;;;12.50;84.08;101419.97;84773;1327;22633;-70
2022/08/07 01:14:45;;;;;;;;;;;;;;;12.45;84.19;101420.65;84774;1326;24240;-70
2022/08/07 01:16:52;;;;;;;;;;;;;;;12.41;84.56;101418.64;84780;1326;22712;-68
2022/08/07 01:18:59;;;;;;;;;;;;;;;12.36;84.59;101419.52;84808;1326;22557;-69
2022/08/07 01:21:18;;;;;;;;;;;;;;;12.29;84.43;101420.91;84803;1327;22572;-67
2022/08/07 01:23:28;;;;;;;;;;;;;;;12.21;84.48;101422.21;84803;1323;22573;-69
2022/08/07 01:25:35;;;;;;;;;;;;;;;12.14;84.81;101421.34;84821;1328;22613;-70
2022/08/07 01:27:42;;;;;;;;;;;;;;;12.09;85.17;101423.58;84800;1327;22839;-70
2022/08/07 01:29:50;;;;;;;;;;;;;;;12.01;84.99;101419.77;84830;1325;22570;-69
2022/08/07 01:32:02;;;;;;;;;;;;;;;11.93;85.28;101416.48;84780;1327;22694;-71
2022/08/07 01:34:13;;;;;;;;;;;;;;;11.88;85.53;101416.13;84796;1327;22565;-71
2022/08/07 01:36:20;;;;;;;;;;;;;;;11.82;85.64;101416.26;84822;1326;22584;-69
2022/08/07 01:38:28;;;;;;;;;;;;;;;11.75;85.45;101416.06;84788;1327;24267;-69
2022/08/07 01:40:35;;;;;;;;;;;;;;;11.66;85.36;101417.52;84834;1327;24340;-71
2022/08/07 01:42:42;;;;;;;;;;;;;;;11.55;85.67;101416.75;84795;1326;22590;-69
2022/08/07 01:44:51;;;;;;;;;;;;;;;11.50;85.99;101417.92;84779;1326;22884;-70
2022/08/07 01:46:58;;;;;;;;;;;;;;;11.48;86.31;101418.35;84791;1326;22559;-70
2022/08/07 01:49:05;;;;;;;;;;;;;;;11.44;86.45;101423.69;84814;1325;25549;-68
2022/08/07 01:51:17;;;;;;;;;;;;;;;11.40;86.45;101417.84;84790;1327;24158;-70
2022/08/07 01:53:25;;;;;;;;;;;;;;;11.32;86.50;101418.55;84776;1326;24301;-70
2022/08/07 01:55:36;;;;;;;;;;;;;;;11.27;86.58;101416.23;84791;1326;24432;-71
2022/08/07 01:57:43;;;;;;;;;;;;;;;11.24;87.02;101414.73;84762;1326;22559;-71
2022/08/07 01:59:52;;;;;;;;;;;;;;;11.23;87.06;101412.48;84808;1326;22709;-69
2022/08/07 02:02:01;;;;;;;;;;;;;;;11.21;87.23;101410.63;84820;1325;24315;-69
2022/08/07 02:04:11;;;;;;;;;;;;;;;11.16;87.19;101415.45;84784;1326;25521;-69
2022/08/07 02:06:18;;;;;;;;;;;;;;;11.11;87.31;101413.45;84766;1326;22586;-70
2022/08/07 02:08:25;;;;;;;;;;;;;;;11.06;87.31;101413.92;84786;1326;22587;-69
2022/08/07 02:10:33;;;;;;;;;;;;;;;11.01;87.35;101419.64;84800;1321;22759;-69
2022/08/07 02:12:41;;;;;;;;;;;;;;;10.95;87.48;101417.52;84752;1326;24047;-70
2022/08/07 02:14:51;;;;;;;;;;;;;;;10.89;87.38;101419.73;84802;1327;22564;-70
2022/08/07 02:16:58;;;;;;;;;;;;;;;10.85;87.67;101417.21;84812;1326;24262;-71
2022/08/07 02:19:06;;;;;;;;;;;;;;;10.83;87.83;101412.16;84810;1327;22591;-70
2022/08/07 02:21:13;;;;;;;;;;;;;;;10.81;87.94;101414.52;84792;1326;24170;-70
2022/08/07 02:23:21;;;;;;;;;;;;;;;10.78;87.99;101413.36;84819;1327;22589;-69
2022/08/07 02:25:28;;;;;;;;;;;;;;;10.75;88.01;101413.77;84827;1327;24261;-69
2022/08/07 02:27:35;;;;;;;;;;;;;;;10.72;88.27;101410.85;84848;1327;23017;-70
2022/08/07 02:29:42;;;;;;;;;;;;;;;10.71;88.15;101411.77;84851;1327;22561;-70
2022/08/07 02:31:49;;;;;;;;;;;;;;;10.68;88.32;101412.69;84826;1326;22562;-68
2022/08/07 02:33:57;;;;;;;;;;;;;;;10.66;88.46;101414.66;84842;1327;22598;-70
2022/08/07 02:36:04;;;;;;;;;;;;;;;10.63;88.44;101415.25;84806;1327;22590;-70
2022/08/07 02:38:11;;;;;;;;;;;;;;;10.60;88.28;101417.08;84810;1327;22705;-69
2022/08/07 02:40:18;;;;;;;;;;;;;;;10.56;88.33;101418.02;84786;1327;22576;-71
2022/08/07 02:42:25;;;;;;;;;;;;;;;10.51;88.30;101412.89;84817;1326;22601;-70
2022/08/07 02:44:32;;;;;;;;;;;;;;;10.44;88.33;101412.33;84823;1321;25003;-70
2022/08/07 02:46:39;;;;;;;;;;;;;;;10.39;88.28;101411.05;84788;1327;23823;-69
2022/08/07 02:48:50;;;;;;;;;;;;;;;10.36;88.62;101415.65;84809;1325;22650;-69
2022/08/07 02:50:57;;;;;;;;;;;;;;;10.31;88.66;101413.65;84795;1327;23037;-70
2022/08/07 02:53:06;;;;;;;;;;;;;;;10.28;88.76;101416.14;84779;1327;23872;-69
2022/08/07 02:55:17;;;;;;;;;;;;;;;10.24;88.52;101417.43;84785;1326;25439;-70
2022/08/07 02:57:26;;;;;;;;;;;;;;;10.21;88.84;101418.71;84797;1326;22571;-68
2022/08/07 02:59:34;;;;;;;;;;;;;;;10.18;88.79;101420.50;84794;1326;23157;-71
2022/08/07 03:01:41;;;;;;;;;;;;;;;10.14;88.78;101419.35;84783;1326;22578;-70
2022/08/07 03:03:47;;;;;;;;;;;;;;;10.10;88.85;101419.95;84772;1326;24774;-70
2022/08/07 03:05:55;;;;;;;;;;;;;;;10.07;89.00;101422.10;84763;1326;25371;-70
2022/08/07 03:08:02;;;;;;;;;;;;;;;10.06;89.01;101426.86;84803;1326;22565;-70
2022/08/07 03:10:10;;;;;;;;;;;;;;;10.04;89.27;101425.46;84832;1327;22630;-70
2022/08/07 03:12:17;;;;;;;;;;;;;;;10.03;89.25;101431.41;84871;1326;25450;-68
2022/08/07 03:14:24;;;;;;;;;;;;;;;10.02;89.37;101431.11;84842;1328;25360;-69
2022/08/07 03:16:31;;;;;;;;;;;;;;;10.00;89.30;101428.52;84787;1326;22562;-70
2022/08/07 03:18:38;;;;;;;;;;;;;;;10.00;89.45;101433.40;84815;1326;22583;-68
2022/08/07 03:20:48;;;;;;;;;;;;;;;9.99;89.64;101433.58;84799;1325;22579;-69
2022/08/07 03:22:55;;;;;;;;;;;;;;;10.00;89.74;101434.61;84784;1322;22771;-68
2022/08/07 03:25:02;;;;;;;;;;;;;;;9.98;89.59;101429.42;84734;1326;22589;-69
2022/08/07 03:27:09;;;;;;;;;;;;;;;9.95;89.76;101432.09;84742;1326;22579;-71
2022/08/07 03:29:16;;;;;;;;;;;;;;;9.94;89.93;101432.80;84841;1327;22562;-68
2022/08/07 03:31:24;;;;;;;;;;;;;;;9.95;89.86;101428.78;84799;1321;22914;-70
2022/08/07 03:33:32;;;;;;;;;;;;;;;9.94;89.98;101430.55;84770;1327;22571;-69
2022/08/07 03:35:40;;;;;;;;;;;;;;;9.94;90.06;101432.63;84817;1325;22805;-70
2022/08/07 03:37:50;;;;;;;;;;;;;;;9.94;90.23;101433.67;84331;1327;668960;-71
2022/08/07 03:39:57;;;;;;;;;;;;;;;9.95;90.32;101431.23;84844;1326;22556;-70
2022/08/07 03:42:04;;;;;;;;;;;;;;;9.96;90.73;101435.91;84807;1322;23948;-69
2022/08/07 03:44:12;;;;;;;;;;;;;;;10.00;90.98;101433.74;84850;1327;22550;-70
2022/08/07 03:46:19;;;;;;;;;;;;;;;10.05;91.06;101435.56;84834;1323;22841;-69
2022/08/07 03:48:28;;;;;;;;;;;;;;;10.10;91.28;101438.44;84858;1325;22577;-68
2022/08/07 03:50:36;;;;;;;;;;;;;;;10.15;91.37;101438.52;84842;1326;22625;-70
2022/08/07 03:52:43;;;;;;;;;;;;;;;10.28;91.40;101435.14;84832;1326;22723;-68
2022/08/07 03:54:51;;;;;;;;;;;;;;;10.51;91.78;101435.23;84862;1326;24327;-68
2022/08/07 03:56:58;;;;;;;;;;;;;;;10.98;92.27;101432.98;84848;1326;22554;-69
2022/08/07 03:59:05;;;;;;;;;;;;;;;11.92;94.51;101435.55;84821;1323;23871;-70
2022/08/07 04:01:13;;;;;;;;;;;;;;;13.05;95.82;101435.29;84814;1323;22860;-70
2022/08/07 04:03:20;;;;;;;;;;;;;;;14.09;94.71;101429.20;84799;1327;22872;-71
2022/08/07 04:05:27;;;;;;;;;;;;;;;15.01;92.05;101431.73;84840;1327;22840;-71
2022/08/07 04:07:34;;;;;;;;;;;;;;;15.82;88.87;101429.68;84782;1327;22563;-69
2022/08/07 04:09:41;;;;;;;;;;;;;;;16.62;85.37;101431.73;84830;1326;22554;-69
2022/08/07 04:11:48;;;;;;;;;;;;;;;17.31;81.51;101433.76;84814;1327;22557;-70
2022/08/07 04:13:55;;;;;;;;;;;;;;;17.98;78.99;101427.23;84808;1326;22557;-70
2022/08/07 04:16:02;;;;;;;;;;;;;;;18.47;75.33;101425.83;84782;1325;22582;-68
2022/08/07 04:18:09;;;;;;;;;;;;;;;18.22;72.79;101431.80;84793;1325;22712;-70
2022/08/07 04:20:18;;;;;;;;;;;;;;;17.60;72.21;101438.34;84809;1326;22828;-70
2022/08/07 04:22:26;;;;;;;;;;;;;;;16.96;72.24;101442.33;84828;1327;24238;-70
2022/08/07 04:24:33;;;;;;;;;;;;;;;16.40;72.88;101440.69;84854;1326;25225;-69
2022/08/07 04:26:41;;;;;;;;;;;;;;;15.90;73.71;101443.21;84836;1322;22681;-70
2022/08/07 04:28:48;;;;;;;;;;;;;;;15.52;74.53;101445.68;84831;1326;26488;-70
2022/08/07 04:30:55;;;;;;;;;;;;;;;15.19;75.33;101447.35;84821;1322;22555;-68
2022/08/07 04:33:05;;;;;;;;;;;;;;;14.95;76.04;101452.18;84777;1327;22590;-70
2022/08/07 04:35:12;;;;;;;;;;;;;;;14.76;76.88;101454.51;84853;1327;22599;-70
2022/08/07 04:37:19;;;;;;;;;;;;;;;14.58;77.50;101452.55;84781;1325;22570;-70
2022/08/07 04:39:28;;;;;;;;;;;;;;;14.44;78.01;101450.94;84829;1327;22564;-70
2022/08/07 04:41:35;;;;;;;;;;;;;;;14.33;78.58;101457.48;84789;1326;25422;-68
2022/08/07 04:43:45;;;;;;;;;;;;;;;14.25;79.47;101458.83;84845;1325;22800;-70
2022/08/07 04:45:55;;;;;;;;;;;;;;;14.18;80.08;101456.42;84797;1327;22791;-70
2022/08/07 04:48:05;;;;;;;;;;;;;;;14.19;80.38;101456.92;84831;1327;25415;-70
2022/08/07 04:50:14;;;;;;;;;;;;;;;14.30;80.95;101461.63;84804;1327;22580;-70
2022/08/07 04:52:25;;;;;;;;;;;;;;;14.81;81.69;101466.09;84797;1328;22588;-67
2022/08/07 04:54:33;;;;;;;;;;;;;;;15.94;82.71;101461.70;84809;1326;22709;-70
2022/08/07 04:56:46;;;;;;;;;;;;;;;17.26;83.20;101460.80;84809;1323;22584;-70
2022/08/07 04:58:56;;;;;;;;;;;;;;;18.71;79.15;101456.18;84809;1327;22562;-70
2022/08/07 05:01:06;;;;;;;;;;;;;;;19.90;73.50;101460.20;84793;1321;22567;-70
2022/08/07 05:03:17;;;;;;;;;;;;;;;20.98;69.49;101460.98;84811;1326;25574;-68
2022/08/07 05:05:26;;;;;;;;;;;;;;;21.94;65.81;101461.05;84867;1327;22627;-69
2022/08/07 05:07:35;;;;;;;;;;;;;;;22.69;62.01;101463.46;84838;1325;22571;-70
2022/08/07 05:09:44;;;;;;;;;;;;;;;23.34;59.12;101465.68;84754;1326;22578;-71
2022/08/07 05:11:52;;;;;;;;;;;;;;;24.06;55.67;101471.65;84817;1325;22585;-71
2022/08/07 05:14:03;;;;;;;;;;;;;;;24.65;53.53;101474.36;84807;1325;22551;-71
2022/08/07 05:16:11;;;;;;;;;;;;;;;25.24;51.72;101478.13;84827;1321;22656;-71
2022/08/07 05:18:22;;;;;;;;;;;;;;;25.72;49.98;101479.55;84819;1327;25017;-71
2022/08/07 05:20:32;;;;;;;;;;;;;;;26.19;48.75;101477.67;84862;1325;22837;-71
2022/08/07 05:22:40;;;;;;;;;;;;;;;26.74;46.99;101478.52;84839;1325;25414;-71
2022/08/07 05:24:47;;;;;;;;;;;;;;;27.18;46.77;101483.45;84811;1327;25344;-71
2022/08/07 05:26:56;;;;;;;;;;;;;;;27.49;46.06;101484.34;84788;1326;23954;-73
2022/08/07 05:29:04;;;;;;;;;;;;;;;27.75;46.17;101483.21;84800;1325;22570;-70
2022/08/07 05:31:12;;;;;;;;;;;;;;;27.76;43.60;101489.36;84801;1327;24269;-71
2022/08/07 05:33:19;;;;;;;;;;;;;;;27.62;42.39;101491.27;84809;1325;22567;-70
2022/08/07 05:35:25;;;;;;;;;;;;;;;27.59;42.49;101488.83;84744;1325;22673;-71
2022/08/07 05:37:32;;;;;;;;;;;;;;;27.76;41.29;101486.20;84805;1325;24309;-71
2022/08/07 05:39:39;;;;;;;;;;;;;;;28.04;42.14;101484.77;84812;1327;22563;-70
2022/08/07 05:41:47;;;;;;;;;;;;;;;28.35;41.68;101482.54;84766;1327;23974;-70
2022/08/07 05:43:56;;;;;;;;;;;;;;;28.54;40.32;101484.76;84817;1325;22852;-70
2022/08/07 05:46:03;;;;;;;;;;;;;;;28.64;40.23;101483.17;84795;1326;22561;-70
2022/08/07 05:48:10;;;;;;;;;;;;;;;28.75;39.53;101484.63;84840;1327;22848;-71
2022/08/07 05:50:18;;;;;;;;;;;;;;;28.87;38.98;101487.27;84817;1327;22622;-70
2022/08/07 05:52:25;;;;;;;;;;;;;;;29.00;37.88;101486.92;84787;1321;23145;-72
2022/08/07 05:54:32;;;;;;;;;;;;;;;29.14;37.27;101484.44;84759;1327;22651;-71
2022/08/07 05:56:39;;;;;;;;;;;;;;;29.44;37.93;101484.52;84780;1328;22736;-71
2022/08/07 05:58:47;;;;;;;;;;;;;;;29.80;36.33;101485.89;84808;1322;23038;-72
2022/08/07 06:00:54;;;;;;;;;;;;;;;30.02;35.32;101483.09;84805;1325;22564;-72
2022/08/07 06:03:01;;;;;;;;;;;;;;;30.13;36.09;101482.81;84771;1327;22558;-72
2022/08/07 06:05:10;;;;;;;;;;;;;;;30.35;34.77;101482.78;84804;1326;22554;-72
2022/08/07 06:07:17;;;;;;;;;;;;;;;30.56;34.12;101481.64;84804;1327;22588;-71
2022/08/07 06:09:24;;;;;;;;;;;;;;;30.68;33.61;101483.63;84846;1326;22553;-72
2022/08/07 06:11:31;;;;;;;;;;;;;;;30.95;33.21;101484.40;84812;1327;22555;-72
2022/08/07 06:13:38;;;;;;;;;;;;;;;31.20;32.78;101480.63;84824;1323;24080;-71
2022/08/07 06:15:46;;;;;;;;;;;;;;;31.37;32.55;101478.05;84784;1326;23041;-71
2022/08/07 06:17:53;;;;;;;;;;;;;;;31.59;32.32;101478.89;84792;1327;22560;-70
2022/08/07 06:20:00;;;;;;;;;;;;;;;31.83;32.34;101474.73;84807;1322;22608;-71
2022/08/07 06:22:07;;;;;;;;;;;;;;;32.09;31.94;101475.69;84796;1327;25283;-70
2022/08/07 06:24:14;;;;;;;;;;;;;;;32.26;30.37;101482.02;84827;1322;22824;-71
2022/08/07 06:26:22;;;;;;;;;;;;;;;32.25;30.75;101482.35;84803;1326;23032;-71
2022/08/07 06:28:30;;;;;;;;;;;;;;;32.34;29.95;101482.02;84769;1326;22597;-71
2022/08/07 06:30:38;;;;;;;;;;;;;;;32.52;29.56;101478.62;84763;1326;25242;-70
2022/08/07 06:32:46;;;;;;;;;;;;;;;32.61;29.69;101479.93;84786;1327;23878;-70
2022/08/07 06:34:53;;;;;;;;;;;;;;;32.79;28.21;101481.21;84801;1326;23884;-71
2022/08/07 06:37:00;;;;;;;;;;;;;;;32.89;27.40;101482.63;84812;1326;22563;-71
2022/08/07 06:39:12;;;;;;;;;;;;;;;32.99;27.61;101485.64;84814;1328;25373;-71
2022/08/07 06:41:23;;;;;;;;;;;;;;;32.80;27.98;101487.09;84815;1327;22562;-71
2022/08/07 06:43:34;;;;;;;;;;;;;;;32.83;28.62;101485.26;84848;1327;24238;-70
2022/08/07 06:45:42;;;;;;;;;;;;;;;32.89;27.50;101478.67;84809;1322;22573;-70
2022/08/07 06:47:49;;;;;;;;;;;;;;;33.08;28.50;101481.93;84777;1326;25346;-70
2022/08/07 06:49:56;;;;;;;;;;;;;;;33.24;25.87;101485.45;84779;1326;25487;-70
2022/08/07 06:52:04;;;;;;;;;;;;;;;33.11;26.37;101486.59;84791;1326;24248;-71
2022/08/07 06:54:11;;;;;;;;;;;;;;;33.16;26.68;101487.31;84813;1326;24216;-71
2022/08/07 06:56:38;;;;;;;;;;;;;;;33.41;27.71;101489.75;84844;1323;22690;-70
2022/08/07 06:58:45;;;;;;;;;;;;;;;33.70;26.71;101492.34;84864;1326;22659;-70
2022/08/07 07:00:52;;;;;;;;;;;;;;;33.69;25.46;101497.02;84833;1327;23914;-70
2022/08/07 07:03:00;;;;;;;;;;;;;;;33.58;25.55;101497.75;84808;1327;22694;-70
2022/08/07 07:05:08;;;;;;;;;;;;;;;33.67;25.63;101498.48;84839;1323;22672;-70
2022/08/07 07:07:15;;;;;;;;;;;;;;;33.79;25.61;101500.65;84760;1326;22554;-70
2022/08/07 07:09:24;;;;;;;;;;;;;;;33.72;25.28;101501.84;84779;1325;25452;-70
2022/08/07 07:11:32;;;;;;;;;;;;;;;33.52;24.23;101498.10;84809;1322;22608;-70
2022/08/07 07:13:41;;;;;;;;;;;;;;;33.29;24.87;101493.94;84841;1327;25401;-70
2022/08/07 07:15:50;;;;;;;;;;;;;;;33.47;25.10;101494.01;84828;1327;22806;-70
2022/08/07 07:18:02;;;;;;;;;;;;;;;33.57;25.83;101496.10;84811;1326;25564;-70
2022/08/07 07:20:11;;;;;;;;;;;;;;;33.73;24.58;101497.56;84859;1322;22564;-71
2022/08/07 07:22:19;;;;;;;;;;;;;;;33.50;23.68;101496.11;84833;1325;22562;-71
2022/08/07 07:24:26;;;;;;;;;;;;;;;33.40;24.04;101492.20;84800;1326;22593;-71
2022/08/07 07:26:34;;;;;;;;;;;;;;;33.31;24.34;101486.02;84830;1327;23727;-71
2022/08/07 07:28:44;;;;;;;;;;;;;;;33.20;24.26;101491.66;84829;1326;22568;-71
2022/08/07 07:31:07;;;;;;;;;;;;;;;33.09;24.76;101486.60;84836;1325;22700;-71
2022/08/07 07:33:16;;;;;;;;;;;;;;;33.15;23.86;101484.33;84798;1328;24965;-71
2022/08/07 07:35:26;;;;;;;;;;;;;;;33.11;24.30;101482.42;84830;1322;22554;-71
2022/08/07 07:37:33;;;;;;;;;;;;;;;33.35;24.36;101483.42;84846;1323;22587;-71
2022/08/07 07:39:41;;;;;;;;;;;;;;;33.40;24.21;101478.83;84850;1329;22566;-71
2022/08/07 07:41:49;;;;;;;;;;;;;;;33.46;23.79;101480.71;84826;1326;22566;-71
2022/08/07 07:43:56;;;;;;;;;;;;;;;33.49;23.97;101480.33;84856;1327;23897;-71
2022/08/07 07:46:03;;;;;;;;;;;;;;;33.53;23.70;101477.20;84843;1322;22561;-72
2022/08/07 07:48:11;;;;;;;;;;;;;;;33.70;23.38;101478.41;84789;1325;22602;-71
2022/08/07 07:50:18;;;;;;;;;;;;;;;33.63;23.38;101476.17;84830;1327;24279;-72
2022/08/07 07:52:25;;;;;;;;;;;;;;;33.52;23.76;101478.54;84795;1326;22545;-71
2022/08/07 07:54:32;;;;;;;;;;;;;;;33.67;24.42;101481.66;84866;1325;25424;-71
2022/08/07 07:56:39;;;;;;;;;;;;;;;33.83;23.98;101481.05;84785;1325;22611;-71
2022/08/07 07:58:47;;;;;;;;;;;;;;;33.96;23.26;101479.86;84820;1327;25291;-71
2022/08/07 08:00:55;;;;;;;;;;;;;;;34.01;22.95;101475.36;84782;1323;22625;-71
2022/08/07 08:03:09;;;;;;;;;;;;;;;33.99;23.22;101477.42;84800;1327;22558;-73
2022/08/07 08:05:18;;;;;;;;;;;;;;;34.22;23.45;101476.06;84775;1327;25523;-72
2022/08/07 08:07:25;;;;;;;;;;;;;;;34.46;22.44;101474.35;84778;1326;22569;-71
2022/08/07 08:09:32;;;;;;;;;;;;;;;34.23;22.15;101475.10;84840;1329;25409;-71
2022/08/07 08:11:39;;;;;;;;;;;;;;;33.98;22.81;101473.43;84820;1326;22583;-71
2022/08/07 08:13:47;;;;;;;;;;;;;;;34.19;23.90;101472.15;84845;1327;23935;-70
2022/08/07 08:15:55;;;;;;;;;;;;;;;34.43;23.45;101471.76;84795;1322;22567;-72
2022/08/07 08:18:02;;;;;;;;;;;;;;;34.60;22.05;101468.27;84825;1327;22603;-71
2022/08/07 08:20:12;;;;;;;;;;;;;;;34.59;22.11;101472.88;84785;1327;22578;-71
2022/08/07 08:27:14;;;;;;;;;;;;;;;35.05;21.30;101464.96;84823;1326;25448;-71
2022/08/07 08:29:23;;;;;;;;;;;;;;;35.05;21.80;101463.02;84865;1326;22582;-75
2022/08/07 08:31:32;;;;;;;;;;;;;;;35.10;22.37;101463.80;84857;1325;22686;-73
2022/08/07 08:33:40;;;;;;;;;;;;;;;34.92;21.61;101465.30;84860;1326;22556;-71
2022/08/07 08:35:49;;;;;;;;;;;;;;;34.94;22.16;101464.48;84810;1327;22886;-70
2022/08/07 08:37:59;;;;;;;;;;;;;;;35.04;20.74;101462.98;84821;1326;22626;-70
2022/08/07 08:40:13;;;;;;;;;;;;;;;34.90;21.40;101465.93;84835;1326;22789;-72
2022/08/07 08:42:26;;;;;;;;;;;;;;;35.17;21.94;101467.05;84716;1325;22584;-73
2022/08/07 08:44:35;;;;;;;;;;;;;;;35.13;20.27;101468.00;84850;1323;22550;-71
2022/08/07 08:46:47;;;;;;;;;;;;;;;34.83;21.11;101466.94;84753;1327;25425;-71
2022/08/07 08:52:35;;;;;;;;;;;;;;;35.24;20.57;101474.41;84727;1327;22668;-72
2022/08/07 08:55:25;;;;;;;;;;;;;;;35.18;19.30;101475.36;84768;1321;22687;-71
2022/08/07 08:58:15;;;;;;;;;;;;;;;35.00;19.30;101473.27;84812;1329;22598;-70
2022/08/07 09:01:10;;;;;;;;;;;;;;;;;;;;;
2022/08/07 09:03:41;;;;;;;;;;;;;;;34.96;20.70;101470.46;84829;1327;22579;-72
2022/08/07 09:09:59;;;;;;;;;;;;;;;;;;;;;
2022/08/07 09:12:46;;;;;;;;;;;;;;;35.47;22.13;101462.67;84761;1327;22595;-69
2022/08/07 09:15:50;;;;;;;;;;;;;;;35.86;21.70;101459.95;84818;1326;22606;-71
2022/08/07 09:18:54;;;;;;;;;;;;;;;36.21;21.23;101456.48;84720;1330;22568;-70
2022/08/07 09:21:42;;;;;;;;;;;;;;;36.14;21.40;101452.95;84787;1326;22557;-70
2022/08/07 09:24:36;;;;;;;;;;;;;;;;;;;;;
2022/08/07 09:30:17;;;;;;;;;;;;;;;34.73;21.18;101454.05;84869;1325;22564;-74
2022/08/07 09:36:30;;;;;;;;;;;;;;;31.51;23.16;101459.35;84791;1327;26477;-69
2022/08/07 09:39:08;;;;;;;;;;;;;;;30.55;22.92;101452.44;84824;1327;22567;-71
2022/08/07 09:41:21;;;;;;;;;;;;;;;30.02;23.48;101453.02;84813;1327;22554;-70
2022/08/07 09:43:34;;;;;;;;;;;;;;;29.56;24.40;101450.40;84818;1327;22589;-71
2022/08/07 09:45:50;;;;;;;;;;;;;;;29.27;24.54;101450.36;84840;1327;24411;-70
2022/08/07 09:48:06;;;;;;;;;;;;;;;29.03;25.87;101445.11;84839;1323;22564;-70
2022/08/07 09:50:23;;;;;;;;;;;;;;;28.82;26.73;101442.83;84827;1326;22602;-68
2022/08/07 09:52:33;;;;;;;;;;;;;;;28.71;28.22;101439.20;84856;1321;22687;-70
2022/08/07 09:54:44;;;;;;;;;;;;;;;28.78;28.16;101438.77;84833;1327;22618;-68
2022/08/07 09:57:25;;;;;;;;;;;;;;;28.54;26.64;101436.09;84851;1326;25440;-71
2022/08/07 09:59:52;;;;;;;;;;;;;;;28.23;26.08;101435.47;84879;1326;23992;-70
2022/08/07 10:02:14;;;;;;;;;;;;;;;27.87;26.81;101433.16;84833;1327;22812;-68
2022/08/07 10:04:59;;;;;;;;;;;;;;;27.64;28.72;101429.70;84840;1326;22613;-70
2022/08/07 10:07:25;;;;;;;;;;;;;;;27.70;29.06;101435.45;84811;1328;22698;-70
2022/08/07 10:09:46;;;;;;;;;;;;;;;27.85;29.73;101423.67;84818;1328;22578;-71
2022/08/07 10:12:14;;;;;;;;;;;;;;;27.92;28.28;101421.05;84827;1325;22563;-69
2022/08/07 10:14:37;;;;;;;;;;;;;;;27.83;29.43;101420.58;84804;1322;22668;-71
2022/08/07 10:16:59;;;;;;;;;;;;;;;27.82;28.91;101426.27;84818;1326;22562;-68
2022/08/07 10:19:33;;;;;;;;;;;;;;;27.65;27.18;101419.58;84840;1327;23763;-69
2022/08/07 10:21:57;;;;;;;;;;;;;;;27.45;27.09;101418.99;84820;1325;24374;-68
2022/08/07 10:24:35;;;;;;;;;;;;;;;27.39;27.08;101415.59;84813;1325;22596;-70
2022/08/07 10:26:56;;;;;;;;;;;;;;;27.21;27.30;101418.48;84766;1327;22579;-69
2022/08/07 10:29:16;;;;;;;;;;;;;;;27.05;27.51;101419.21;84826;1326;22730;-71
2022/08/07 10:31:56;;;;;;;;;;;;;;;26.97;28.50;101418.11;84805;1327;23865;-71
2022/08/07 10:34:32;;;;;;;;;;;;;;;26.83;28.12;101411.52;84741;1324;22591;-70
2022/08/07 10:37:27;;;;;;;;;;;;;;;26.80;29.88;101416.14;84833;1327;25251;-68
2022/08/07 10:40:30;;;;;;;;;;;;;;;;;;;;;
2022/08/07 10:43:13;;;;;;;;;;;;;;;26.43;29.35;101411.67;84755;1327;22622;-71
2022/08/07 10:45:24;;;;;;;;;;;;;;;26.32;29.41;101410.92;84862;1327;25622;-71
2022/08/07 10:47:45;;;;;;;;;;;;;;;26.28;30.00;101409.60;84832;1326;23904;-72
2022/08/07 10:50:01;;;;;;;;;;;;;;;26.28;29.93;101402.60;84837;1322;22567;-71
2022/08/07 10:52:12;;;;;;;;;;;;;;;26.38;30.00;101408.23;84809;1326;22626;-72
2022/08/07 10:54:25;;;;;;;;;;;;;;;26.25;29.13;101406.63;84780;1326;24232;-71
2022/08/07 10:56:43;;;;;;;;;;;;;;;26.20;30.26;101404.94;84793;1328;22566;-72
2022/08/07 10:59:01;;;;;;;;;;;;;;;26.10;28.98;101408.89;84803;1327;22559;-70
2022/08/07 11:01:17;;;;;;;;;;;;;;;25.90;27.81;101401.96;84787;1325;26589;-71
2022/08/07 11:03:31;;;;;;;;;;;;;;;25.72;27.80;101406.05;84689;1330;25968;-69
2022/08/07 11:05:48;;;;;;;;;;;;;;;25.48;27.97;101401.80;84805;1327;22566;-69
2022/08/07 11:07:58;;;;;;;;;;;;;;;25.38;29.75;101399.12;84766;1327;22568;-70
2022/08/07 11:10:09;;;;;;;;;;;;;;;25.22;29.51;101397.77;84778;1325;22932;-71
2022/08/07 11:12:21;;;;;;;;;;;;;;;25.11;30.65;101395.80;84793;1325;24035;-70
2022/08/07 11:14:29;;;;;;;;;;;;;;;25.10;31.17;101397.70;84819;1327;22587;-71
2022/08/07 11:16:39;;;;;;;;;;;;;;;25.18;32.46;101393.10;84833;1326;24427;-70
2022/08/07 11:18:49;;;;;;;;;;;;;;;25.35;32.42;101386.52;84888;1328;22591;-70
2022/08/07 11:21:00;;;;;;;;;;;;;;;25.45;31.47;101387.55;84792;1327;22596;-69
2022/08/07 11:23:12;;;;;;;;;;;;;;;25.35;31.33;101387.00;84824;1325;22586;-70
2022/08/07 11:25:20;;;;;;;;;;;;;;;25.23;30.60;101386.96;84860;1327;22551;-71
2022/08/07 11:27:30;;;;;;;;;;;;;;;24.99;29.95;101389.48;84838;1328;22837;-70
2022/08/07 11:29:40;;;;;;;;;;;;;;;24.74;30.26;101390.27;84884;1327;22558;-70
2022/08/07 11:31:51;;;;;;;;;;;;;;;24.61;30.64;101390.28;84813;1325;22566;-70
2022/08/07 11:34:01;;;;;;;;;;;;;;;24.46;30.54;101388.44;84816;1327;25228;-71
2022/08/07 11:36:13;;;;;;;;;;;;;;;24.37;30.70;101385.05;84858;1322;22589;-70
2022/08/07 11:38:24;;;;;;;;;;;;;;;24.38;31.04;101381.42;84433;1327;531355;-69